Time,TemperatureF,DewpointF,PressureIn,WindDirection,WindDirectionDegrees,WindSpeedMPH,WindSpeedGustMPH,Humidity,HourlyPrecipIn,Conditions,Clouds,dailyrainin,SoftwareType,DateUTC
2013-08-05 13:24:00,70.5,62.9,29.95,SSW,202,5.0,6.0,77,0.00,,,0.01,Wunderground v.1.15,2013-08-05 18:24:00,
2013-08-05 13:30:00,70.3,63.1,29.95,South,174,5.0,5.0,78,0.00,,,0.02,Wunderground v.1.15,2013-08-05 18:30:00,
2013-08-05 13:40:00,70.1,63.3,29.94,SSW,205,6.0,7.0,79,0.00,,,0.02,Wunderground v.1.15,2013-08-05 18:40:00,
2013-08-05 13:45:00,70.1,64.0,29.95,South,184,5.0,7.0,81,0.00,,,0.02,Wunderground v.1.15,2013-08-05 18:45:00,
2013-08-05 13:55:00,69.8,63.7,29.96,SSW,198,6.0,7.0,81,0.00,,,0.02,Wunderground v.1.15,2013-08-05 18:55:00,
2013-08-05 14:00:00,69.4,63.7,29.97,SW,215,6.0,7.0,82,0.00,,,0.02,Wunderground v.1.15,2013-08-05 19:00:00,
2013-08-05 14:05:00,69.0,64.0,29.97,SW,236,6.0,7.0,84,0.00,,,0.03,Wunderground v.1.15,2013-08-05 19:05:00,
2013-08-05 14:25:00,67.6,64.2,29.96,SW,224,3.0,4.0,89,0.13,,,0.08,Wunderground v.1.15,2013-08-05 19:25:00,
2013-08-05 14:30:00,67.2,63.5,29.96,SW,222,6.0,6.0,88,0.10,,,0.09,Wunderground v.1.15,2013-08-05 19:30:00,
2013-08-05 14:40:00,66.8,63.8,29.96,SSW,194,5.0,6.0,90,0.05,,,0.09,Wunderground v.1.15,2013-08-05 19:40:00,
2013-08-05 14:45:00,66.7,63.7,29.96,SSW,211,5.0,6.0,90,0.00,,,0.09,Wunderground v.1.15,2013-08-05 19:45:00,
2013-08-05 14:55:00,66.8,63.8,29.94,South,174,8.0,10.0,90,0.00,,,0.10,Wunderground v.1.15,2013-08-05 19:55:00,
2013-08-05 15:05:00,67.4,64.7,29.94,SSW,192,7.0,8.0,91,0.00,,,0.10,Wunderground v.1.15,2013-08-05 20:05:00,
2013-08-05 15:15:00,68.7,65.0,29.94,SSE,167,7.0,7.0,88,0.00,,,0.10,Wunderground v.1.15,2013-08-05 20:15:00,
2013-08-05 15:25:00,70.1,65.0,29.93,SW,223,7.0,9.0,84,0.00,,,0.10,Wunderground v.1.15,2013-08-05 20:25:00,
2013-08-05 15:35:00,71.1,65.0,29.92,SSE,157,8.0,8.0,81,0.00,,,0.10,Wunderground v.1.15,2013-08-05 20:35:00,
2013-08-05 15:40:00,70.7,64.6,29.93,SSE,155,8.0,8.0,81,0.00,,,0.10,Wunderground v.1.15,2013-08-05 20:40:00,
2013-08-05 15:50:00,70.5,62.9,29.93,South,176,9.0,9.0,77,0.00,,,0.10,Wunderground v.1.15,2013-08-05 20:50:00,
2013-08-05 15:55:00,70.4,62.8,29.93,SSE,161,8.0,12.0,77,0.00,,,0.10,Wunderground v.1.15,2013-08-05 20:55:00,
2013-08-05 16:10:00,70.8,60.9,29.92,SSE,161,9.0,9.0,71,0.00,,,0.10,Wunderground v.1.15,2013-08-05 21:10:00,
2013-08-05 16:20:00,71.0,60.3,29.92,SSE,150,6.0,8.0,69,0.00,,,0.10,Wunderground v.1.15,2013-08-05 21:20:00,
2013-08-05 16:30:00,70.6,59.5,29.92,SSE,164,7.0,7.0,68,0.00,,,0.10,Wunderground v.1.15,2013-08-05 21:30:00,
2013-08-05 16:40:00,70.0,60.9,29.92,SSE,155,6.0,6.0,73,0.00,,,0.10,Wunderground v.1.15,2013-08-05 21:40:00,
2013-08-05 16:45:00,69.9,62.0,29.92,South,169,6.0,6.0,76,0.00,,,0.10,Wunderground v.1.15,2013-08-05 21:45:00,